Time;durP1;ratioP1;P1;durP2;ratioP2;P2;SDS_P1;SDS_P2;PMS_P1;PMS_P2;Temp;Humidity;BMP_temperature;BMP_pressure;BME280_temperature;BME280_humidity;BME280_pressure;Samples;Min_cycle;Max_cycle;Signal;HPM_P1;HPM_P2
2021/08/08 00:00:38;;;;;;;6.42;4.12;;;;;;;18.43;64.86;100392.30;1754414;80;21472;-58
2021/08/08 00:03:05;;;;;;;6.00;3.92;;;;;;;18.43;64.70;100392.81;1752086;80;21706;-58
2021/08/08 00:05:32;;;;;;;8.48;4.17;;;;;;;18.34;64.48;100386.67;1749204;79;21201;-58
2021/08/08 00:07:59;;;;;;;10.65;4.67;;;;;;;18.23;64.52;100394.55;1751272;79;21098;-57
2021/08/08 00:10:26;;;;;;;7.53;3.58;;;;;;;18.14;64.56;100400.89;1753891;79;21007;-58
2021/08/08 00:12:52;;;;;;;7.97;4.55;;;;;;;18.07;64.55;100402.59;1752016;79;21413;-58
2021/08/08 00:15:19;;;;;;;6.35;4.12;;;;;;;17.99;64.67;100405.62;1777817;78;21129;-58
2021/08/08 00:17:46;;;;;;;6.22;4.15;;;;;;;17.95;64.69;100408.27;1784214;78;21057;-58
2021/08/08 00:20:13;;;;;;;8.40;4.12;;;;;;;17.87;64.79;100395.48;1763770;80;21019;-58
2021/08/08 00:22:40;;;;;;;6.22;3.40;;;;;;;17.85;64.81;100396.95;1785853;78;21078;-58
2021/08/08 00:25:09;;;;;;;6.65;3.77;;;;;;;17.91;64.64;100399.48;1791318;78;21493;-58
2021/08/08 00:27:37;;;;;;;8.03;3.87;;;;;;;17.94;64.57;100395.98;1780359;78;21115;-57
2021/08/08 00:30:07;;;;;;;7.15;3.55;;;;;;;17.98;64.56;100394.62;1753991;80;21133;-58
2021/08/08 00:32:34;;;;;;;7.45;4.33;;;;;;;17.98;64.54;100403.95;1779953;78;21000;-58
2021/08/08 00:35:01;;;;;;;7.05;4.00;;;;;;;18.01;64.62;100413.44;1786534;78;21072;-58
2021/08/08 00:37:27;;;;;;;6.60;4.08;;;;;;;18.04;64.47;100416.23;1764129;79;21093;-57
2021/08/08 00:39:56;;;;;;;7.30;3.90;;;;;;;18.05;64.27;100419.25;1789743;78;21548;-58
2021/08/08 00:42:23;;;;;;;7.22;4.10;;;;;;;18.06;64.31;100408.94;1797479;78;22309;-58
2021/08/08 00:44:50;;;;;;;7.62;3.77;;;;;;;18.05;64.21;100400.61;1787228;78;21072;-58
2021/08/08 00:47:18;;;;;;;8.25;4.12;;;;;;;18.01;64.23;100406.27;1783322;78;21582;-58
2021/08/08 00:49:46;;;;;;;6.72;4.15;;;;;;;17.99;64.37;100403.47;1790388;78;21040;-57
2021/08/08 00:52:14;;;;;;;6.90;4.53;;;;;;;17.99;64.37;100416.27;1790408;78;21065;-58
2021/08/08 00:54:42;;;;;;;7.53;4.20;;;;;;;18.02;64.80;100417.73;1784265;78;21823;-58
2021/08/08 00:57:11;;;;;;;7.95;4.28;;;;;;;18.02;65.06;100416.41;1775051;78;21520;-58
2021/08/08 00:59:38;;;;;;;7.05;4.33;;;;;;;18.02;65.18;100417.73;1780080;78;21049;-58
2021/08/08 01:02:05;;;;;;;8.50;4.28;;;;;;;18.01;64.82;100422.24;1780640;78;21069;-58
2021/08/08 01:04:36;;;;;;;6.83;3.90;;;;;;;17.95;64.63;100425.58;1765121;79;21054;-58
2021/08/08 01:07:14;;;;;;;11.10;4.37;;;;;;;17.86;64.64;100429.24;1780057;78;21018;-58
2021/08/08 01:09:45;;;;;;;6.50;4.00;;;;;;;17.77;64.94;100433.75;1771058;79;21045;-58
2021/08/08 01:12:12;;;;;;;11.65;4.47;;;;;;;17.74;65.13;100438.59;1773137;78;21489;-57
2021/08/08 01:14:42;;;;;;;6.15;3.55;;;;;;;17.77;65.06;100436.41;1787140;78;21520;-58
2021/08/08 01:17:09;;;;;;;9.50;4.47;;;;;;;17.83;65.09;100438.89;1782428;78;21115;-58
2021/08/08 01:19:41;;;;;;;6.53;4.10;;;;;;;17.85;65.12;100430.73;1787635;79;21046;-58
2021/08/08 01:22:08;;;;;;;8.48;4.12;;;;;;;17.86;65.18;100435.89;1782000;78;21035;-58
2021/08/08 01:24:36;;;;;;;7.00;4.03;;;;;;;17.79;65.37;100438.41;1776556;78;21555;-58
2021/08/08 01:27:03;;;;;;;9.90;3.80;;;;;;;17.73;65.54;100440.39;1747334;79;21049;-57
2021/08/08 01:29:33;;;;;;;7.53;3.98;;;;;;;17.72;65.87;100444.55;1781168;78;21060;-58
2021/08/08 01:31:59;;;;;;;9.30;4.28;;;;;;;17.68;66.09;100440.58;1783497;78;21108;-58
2021/08/08 01:34:28;;;;;;;6.20;4.05;;;;;;;17.62;66.41;100439.43;1792153;78;21065;-58
2021/08/08 01:36:55;;;;;;;6.90;3.83;;;;;;;17.61;66.55;100441.75;1778796;78;21002;-58
2021/08/08 01:39:22;;;;;;;7.15;4.15;;;;;;;17.63;66.21;100445.06;1750521;79;21117;-58
2021/08/08 01:41:53;;;;;;;6.72;3.45;;;;;;;17.61;65.78;100438.58;1749830;79;21063;-58
2021/08/08 01:44:24;;;;;;;6.67;3.52;;;;;;;17.54;65.68;100437.59;1748684;79;21055;-58
2021/08/08 01:46:55;;;;;;;5.78;3.72;;;;;;;17.44;65.69;100435.60;1762939;80;20987;-59
2021/08/08 01:49:27;;;;;;;6.15;3.92;;;;;;;17.36;65.82;100432.94;1763543;79;21470;-59
2021/08/08 01:51:57;;;;;;;6.35;3.50;;;;;;;17.29;65.95;100432.77;1763749;79;21096;-59
2021/08/08 01:54:25;;;;;;;8.73;3.80;;;;;;;17.27;66.08;100433.44;1759010;79;21065;-59
2021/08/08 01:56:54;;;;;;;6.58;3.70;;;;;;;17.24;66.16;100426.61;1761886;79;21211;-59
2021/08/08 01:59:22;;;;;;;9.15;3.60;;;;;;;17.25;66.20;100428.28;1755850;79;21112;-57
2021/08/08 02:01:49;;;;;;;6.95;3.50;;;;;;;17.29;66.24;100427.45;1757188;79;21497;-58
2021/08/08 02:04:22;;;;;;;6.08;3.92;;;;;;;17.39;66.23;100425.45;1760493;79;20966;-58
2021/08/08 02:06:50;;;;;;;7.62;4.17;;;;;;;17.47;66.11;100432.61;1760991;79;21034;-58
2021/08/08 02:09:20;;;;;;;7.00;4.03;;;;;;;17.51;66.10;100437.09;1771432;79;20961;-58
2021/08/08 02:11:48;;;;;;;7.20;4.30;;;;;;;17.48;66.05;100441.42;1765185;79;20970;-58
2021/08/08 02:14:16;;;;;;;7.80;4.10;;;;;;;17.44;66.00;100443.08;1772931;79;21049;-58
2021/08/08 02:16:44;;;;;;;7.67;3.85;;;;;;;17.41;66.06;100441.25;1762518;79;21058;-59
2021/08/08 02:19:14;;;;;;;5.65;3.75;;;;;;;17.38;66.01;100446.89;1772779;79;21100;-58
2021/08/08 02:21:45;;;;;;;6.42;3.87;;;;;;;17.32;65.91;100442.26;1764244;79;21120;-59
2021/08/08 02:24:12;;;;;;;9.43;4.00;;;;;;;17.24;65.95;100450.54;1761586;79;22264;-59
2021/08/08 02:26:40;;;;;;;5.62;3.70;;;;;;;17.21;66.01;100450.86;1765651;79;21007;-59
2021/08/08 02:29:08;;;;;;;8.40;4.22;;;;;;;17.23;66.07;100451.55;1763842;79;20999;-59
2021/08/08 02:31:38;;;;;;;6.35;3.52;;;;;;;17.25;66.09;100450.89;1764102;79;21069;-59
2021/08/08 02:34:08;;;;;;;6.22;3.85;;;;;;;17.27;66.18;100448.89;1763216;79;21092;-59
2021/08/08 02:36:36;;;;;;;6.65;4.33;;;;;;;17.32;66.33;100455.05;1761905;79;21108;-61
2021/08/08 02:39:03;;;;;;;6.87;4.17;;;;;;;17.36;66.42;100460.86;1760881;79;21505;-57
2021/08/08 02:41:30;;;;;;;8.30;3.95;;;;;;;17.43;66.50;100453.87;1764764;79;21021;-58
2021/08/08 02:43:58;;;;;;;6.90;3.87;;;;;;;17.44;66.55;100450.23;1759472;79;21096;-58
2021/08/08 02:46:24;;;;;;;6.97;3.55;;;;;;;17.43;66.43;100455.20;1765088;79;21108;-58
2021/08/08 02:48:51;;;;;;;7.90;3.60;;;;;;;17.44;66.33;100456.38;1751707;79;21092;-58
2021/08/08 02:51:18;;;;;;;5.97;3.37;;;;;;;17.49;66.24;100450.56;1749526;79;21085;-59
2021/08/08 02:53:45;;;;;;;6.45;3.67;;;;;;;17.52;66.03;100454.23;1754540;79;21065;-59
2021/08/08 02:56:12;;;;;;;7.97;3.95;;;;;;;17.51;66.03;100458.38;1755341;79;21006;-58
2021/08/08 02:58:39;;;;;;;6.95;3.98;;;;;;;17.50;66.10;100458.03;1756551;79;21901;-58
2021/08/08 03:01:07;;;;;;;7.17;3.92;;;;;;;17.50;66.25;100460.70;1758201;79;21148;-58
2021/08/08 03:03:34;;;;;;;8.05;3.95;;;;;;;17.49;66.45;100456.39;1760738;79;21101;-58
2021/08/08 03:06:01;;;;;;;7.33;3.80;;;;;;;17.48;66.47;100457.37;1756935;79;21053;-58
2021/08/08 03:08:28;;;;;;;8.40;3.77;;;;;;;17.45;66.33;100461.22;1755652;79;21627;-59
2021/08/08 03:10:55;;;;;;;6.25;3.75;;;;;;;17.41;66.31;100457.20;1759702;79;21510;-59
2021/08/08 03:13:21;;;;;;;6.05;3.62;;;;;;;17.42;66.28;100453.56;1723864;79;21355;-59
2021/08/08 03:15:48;;;;;;;7.55;3.55;;;;;;;17.43;66.22;100452.07;1751543;79;21022;-59
2021/08/08 03:18:16;;;;;;;6.95;4.00;;;;;;;17.48;66.19;100452.05;1766286;79;21539;-59
2021/08/08 03:20:44;;;;;;;5.83;3.50;;;;;;;17.50;66.30;100456.23;1767388;79;21049;-59
2021/08/08 03:23:12;;;;;;;5.65;3.60;;;;;;;17.53;66.37;100451.88;1767646;79;21137;-59
2021/08/08 03:25:39;;;;;;;7.40;4.12;;;;;;;17.58;66.41;100455.38;1762803;79;21662;-59
2021/08/08 03:28:06;;;;;;;6.22;3.70;;;;;;;17.61;66.23;100462.52;1772175;79;21011;-59
2021/08/08 03:30:36;;;;;;;7.08;4.03;;;;;;;17.60;65.74;100462.69;1767151;79;21117;-59
2021/08/08 03:33:03;;;;;;;8.05;3.72;;;;;;;17.59;65.50;100463.20;1748168;79;21412;-58
2021/08/08 03:35:30;;;;;;;5.10;3.22;;;;;;;17.64;65.37;100464.03;1764953;79;21078;-59
2021/08/08 03:37:58;;;;;;;8.48;3.90;;;;;;;17.74;65.52;100471.85;1759575;79;21116;-58
2021/08/08 03:40:25;;;;;;;7.75;3.85;;;;;;;17.83;65.40;100467.66;1768792;79;21239;-58
2021/08/08 03:42:54;;;;;;;9.53;3.83;;;;;;;17.91;65.16;100465.53;1765836;79;21076;-58
2021/08/08 03:45:20;;;;;;;6.95;3.58;;;;;;;17.95;65.16;100470.83;1764440;79;21536;-58
2021/08/08 03:47:47;;;;;;;7.15;4.20;;;;;;;18.00;65.47;100476.99;1763501;79;21560;-59
2021/08/08 03:50:14;;;;;;;11.12;3.72;;;;;;;18.06;65.78;100478.16;1761438;79;21964;-58
2021/08/08 03:52:43;;;;;;;6.42;3.65;;;;;;;18.06;65.80;100476.32;1765140;79;21331;-59
2021/08/08 03:55:10;;;;;;;6.42;4.25;;;;;;;18.07;65.75;100473.15;1771617;79;21030;-58
2021/08/08 03:57:37;;;;;;;6.10;3.60;;;;;;;18.13;65.65;100477.81;1760916;79;21073;-64
2021/08/08 04:00:08;;;;;;;9.28;4.05;;;;;;;18.22;65.34;100477.28;1768107;79;21138;-63
2021/08/08 04:02:37;;;;;;;7.22;4.17;;;;;;;18.30;65.11;100478.59;1756704;79;21044;-62
2021/08/08 04:05:05;;;;;;;6.08;3.70;;;;;;;18.34;64.97;100477.23;1754201;79;21058;-61
2021/08/08 04:07:32;;;;;;;6.80;4.28;;;;;;;18.36;65.07;100477.41;1764256;79;21065;-62
2021/08/08 04:10:02;;;;;;;6.28;4.00;;;;;;;18.38;64.85;100474.06;1757566;79;21022;-63
2021/08/08 04:12:28;;;;;;;7.83;3.77;;;;;;;18.38;64.82;100479.39;1747991;79;21079;-63
2021/08/08 04:14:56;;;;;;;7.85;4.15;;;;;;;18.36;64.95;100473.92;1759100;79;21058;-64
2021/08/08 04:17:22;;;;;;;7.45;4.47;;;;;;;18.36;65.00;100469.42;1761960;79;21174;-62
2021/08/08 04:19:49;;;;;;;7.17;4.50;;;;;;;18.43;65.02;100472.73;1759479;79;21014;-63
2021/08/08 04:22:16;;;;;;;8.88;3.92;;;;;;;18.47;64.99;100474.86;1761051;79;21082;-63
2021/08/08 04:24:42;;;;;;;6.42;3.90;;;;;;;18.51;64.88;100470.87;1761341;79;21156;-62
2021/08/08 04:27:09;;;;;;;7.12;4.28;;;;;;;18.53;64.71;100466.70;1753199;79;21453;-70
2021/08/08 04:29:35;;;;;;;5.60;3.77;;;;;;;18.53;64.69;100464.86;1764107;79;21735;-66
2021/08/08 04:32:04;;;;;;;7.40;4.62;;;;;;;18.54;64.91;100465.68;1758914;79;21112;-67
2021/08/08 04:34:31;;;;;;;7.08;4.12;;;;;;;18.57;64.89;100478.66;1770248;79;21002;-68
2021/08/08 04:36:59;;;;;;;6.65;4.22;;;;;;;18.57;64.59;100483.98;1760176;79;21209;-68
2021/08/08 04:39:26;;;;;;;13.93;3.95;;;;;;;18.57;64.68;100476.81;1760464;79;21079;-68
2021/08/08 04:41:53;;;;;;;5.70;3.77;;;;;;;18.62;64.49;100482.97;1765375;79;20990;-69
2021/08/08 04:44:21;;;;;;;6.35;3.83;;;;;;;18.72;64.52;100482.77;1754711;79;21600;-69
2021/08/08 04:46:47;;;;;;;7.62;4.03;;;;;;;18.81;64.21;100486.22;1753277;79;21006;-71
2021/08/08 04:49:15;;;;;;;7.47;3.87;;;;;;;18.86;64.06;100486.55;1762374;79;21104;-67
2021/08/08 04:51:41;;;;;;;9.75;4.30;;;;;;;18.89;64.27;100486.21;1761718;79;21026;-67
2021/08/08 04:54:09;;;;;;;7.10;4.00;;;;;;;18.94;63.96;100487.84;1752000;79;21063;-68
2021/08/08 04:56:37;;;;;;;10.10;4.42;;;;;;;18.97;64.10;100482.69;1752561;79;21524;-69
2021/08/08 04:59:03;;;;;;;8.00;3.75;;;;;;;19.06;63.83;100482.95;1754299;79;21081;-68
2021/08/08 05:01:30;;;;;;;6.15;4.08;;;;;;;19.12;63.83;100482.25;1751115;79;21087;-66
2021/08/08 05:03:57;;;;;;;7.40;3.67;;;;;;;19.17;63.87;100485.73;1756123;79;21144;-65
2021/08/08 05:06:24;;;;;;;7.50;3.65;;;;;;;19.27;63.82;100478.33;1753540;79;21141;-66
2021/08/08 05:08:52;;;;;;;7.33;4.50;;;;;;;19.36;63.38;100481.25;1758254;79;21093;-68
2021/08/08 05:11:19;;;;;;;6.33;3.65;;;;;;;19.47;63.17;100478.17;1760048;79;21115;-68
2021/08/08 05:13:48;;;;;;;7.37;3.90;;;;;;;19.57;62.98;100489.09;1762564;79;21094;-68
2021/08/08 05:16:14;;;;;;;7.25;3.80;;;;;;;19.63;63.06;100492.38;1764939;79;21069;-69
2021/08/08 05:18:42;;;;;;;7.47;4.15;;;;;;;19.66;62.79;100488.03;1769232;79;21136;-68
2021/08/08 05:21:10;;;;;;;6.30;3.22;;;;;;;19.70;62.66;100482.64;1762264;79;21129;-67
2021/08/08 05:23:36;;;;;;;7.10;3.15;;;;;;;19.75;62.67;100481.63;1761301;79;21073;-69
2021/08/08 05:26:04;;;;;;;5.22;2.75;;;;;;;19.83;62.49;100483.41;1751981;79;21131;-70
2021/08/08 05:28:31;;;;;;;7.10;3.00;;;;;;;19.94;62.55;100481.64;1769592;79;21010;-66
2021/08/08 05:30:58;;;;;;;7.30;3.22;;;;;;;20.09;62.41;100475.47;1766448;79;20995;-67
2021/08/08 05:33:25;;;;;;;7.45;3.77;;;;;;;20.19;62.28;100478.20;1769362;79;21762;-66
2021/08/08 05:35:52;;;;;;;6.85;3.15;;;;;;;20.30;61.22;100476.91;1768789;79;21117;-71
2021/08/08 05:38:20;;;;;;;6.85;3.25;;;;;;;20.39;61.36;100478.97;1758772;79;21050;-66
2021/08/08 05:40:48;;;;;;;7.33;3.12;;;;;;;20.46;61.21;100482.59;1752463;79;21617;-66
2021/08/08 05:43:14;;;;;;;7.25;3.52;;;;;;;20.51;61.15;100480.19;1746692;79;21532;-66
2021/08/08 05:45:46;;;;;;;9.03;3.70;;;;;;;20.54;61.33;100477.14;1745960;79;21058;-65
2021/08/08 05:48:11;;;;;;;9.53;4.37;;;;;;;20.61;60.63;100483.91;1753595;79;21074;-70
2021/08/08 05:50:38;;;;;;;9.13;3.22;;;;;;;20.72;60.01;100491.47;1747536;79;21579;-67
2021/08/08 05:53:05;;;;;;;5.50;2.70;;;;;;;20.78;59.98;100492.59;1748125;79;20998;-66
2021/08/08 05:55:35;;;;;;;5.83;3.50;;;;;;;20.81;60.04;100502.06;1752902;79;20991;-67
2021/08/08 05:58:02;;;;;;;10.10;3.50;;;;;;;20.83;60.07;100500.02;1749134;79;21109;-68
2021/08/08 06:00:29;;;;;;;7.62;4.15;;;;;;;20.89;60.00;100501.44;1746032;79;21042;-67
2021/08/08 06:02:57;;;;;;;6.47;3.30;;;;;;;20.95;60.25;100506.05;1747174;79;21125;-68
2021/08/08 06:05:26;;;;;;;6.20;3.70;;;;;;;21.06;60.33;100499.89;1754022;79;21533;-69
2021/08/08 06:07:53;;;;;;;5.92;3.10;;;;;;;21.21;60.07;100497.17;1723144;79;21722;-68
2021/08/08 06:10:19;;;;;;;5.87;3.30;;;;;;;21.33;59.86;100501.84;1752325;79;21603;-70
2021/08/08 06:12:46;;;;;;;6.83;3.52;;;;;;;21.45;59.09;100499.97;1729133;79;21288;-67
2021/08/08 06:15:15;;;;;;;5.40;3.37;;;;;;;21.52;58.61;100500.91;1749775;79;21552;-65
2021/08/08 06:17:42;;;;;;;6.33;3.67;;;;;;;21.59;58.11;100504.47;1753719;79;21082;-67
2021/08/08 06:20:10;;;;;;;9.60;4.22;;;;;;;21.61;57.97;100506.95;1749364;79;21069;-67
2021/08/08 06:22:38;;;;;;;7.17;3.60;;;;;;;21.63;57.70;100508.92;1761200;79;21097;-69
2021/08/08 06:25:06;;;;;;;6.67;3.65;;;;;;;21.64;57.61;100511.42;1747921;79;21064;-69
2021/08/08 06:27:33;;;;;;;6.42;3.22;;;;;;;21.63;57.79;100509.75;1752240;79;23335;-68
2021/08/08 06:30:00;;;;;;;5.03;2.50;;;;;;;21.62;58.01;100510.78;1744262;79;21100;-72
2021/08/08 06:32:27;;;;;;;6.92;3.35;;;;;;;21.62;57.77;100509.94;1752449;79;20991;-67
2021/08/08 06:34:54;;;;;;;6.55;2.67;;;;;;;21.59;57.17;100511.17;1760585;79;21066;-68
2021/08/08 06:37:21;;;;;;;6.28;2.98;;;;;;;21.58;57.25;100516.19;1759970;79;21085;-68
2021/08/08 06:39:48;;;;;;;5.47;2.85;;;;;;;21.59;57.52;100518.37;1759865;79;21097;-67
2021/08/08 06:42:17;;;;;;;4.83;2.50;;;;;;;21.65;56.87;100514.42;1758550;79;21084;-68
2021/08/08 06:44:46;;;;;;;5.53;2.80;;;;;;;21.77;56.74;100517.89;1756294;79;21038;-67
2021/08/08 06:47:14;;;;;;;4.40;2.40;;;;;;;21.84;57.19;100513.45;1755338;79;21037;-68
2021/08/08 06:49:40;;;;;;;6.92;2.60;;;;;;;21.93;55.25;100519.48;1760740;79;21062;-69
2021/08/08 06:52:07;;;;;;;5.12;2.20;;;;;;;21.96;54.70;100522.60;1753205;79;21144;-67
2021/08/08 06:54:34;;;;;;;5.47;2.30;;;;;;;22.01;54.53;100523.36;1749468;79;21074;-69
2021/08/08 06:57:02;;;;;;;5.17;1.98;;;;;;;22.05;54.52;100520.08;1748424;79;21097;-65
2021/08/08 06:59:31;;;;;;;5.00;2.52;;;;;;;22.10;54.26;100530.22;1750842;79;21082;-64
2021/08/08 07:01:59;;;;;;;4.20;2.30;;;;;;;22.12;54.04;100530.03;1745396;79;21129;-64
2021/08/08 07:04:25;;;;;;;6.28;2.20;;;;;;;22.15;53.96;100528.30;1754143;79;21123;-63
2021/08/08 07:06:53;;;;;;;5.83;2.25;;;;;;;22.18;53.87;100526.05;1749936;79;21101;-64
2021/08/08 07:09:21;;;;;;;6.08;2.40;;;;;;;22.23;53.51;100525.47;1753402;79;22075;-65
2021/08/08 07:11:49;;;;;;;5.15;2.80;;;;;;;22.28;53.31;100526.23;1747802;79;21186;-64
2021/08/08 07:14:18;;;;;;;4.62;2.20;;;;;;;22.30;52.84;100530.91;1743942;79;21061;-63
2021/08/08 07:16:46;;;;;;;4.53;2.15;;;;;;;22.34;52.98;100538.37;1745630;79;21164;-62
2021/08/08 07:19:12;;;;;;;4.30;1.98;;;;;;;22.37;52.81;100536.61;1747407;79;21375;-65
2021/08/08 07:21:40;;;;;;;7.15;2.70;;;;;;;22.39;52.14;100533.73;1745237;79;21024;-63
2021/08/08 07:24:07;;;;;;;6.22;1.77;;;;;;;22.42;52.19;100537.37;1749921;79;21101;-64
2021/08/08 07:26:34;;;;;;;5.30;2.58;;;;;;;22.47;51.68;100542.14;1745572;79;21047;-63
2021/08/08 07:29:02;;;;;;;7.03;2.20;;;;;;;22.52;50.90;100538.36;1749057;79;21944;-63
2021/08/08 07:31:30;;;;;;;4.80;2.35;;;;;;;22.53;51.22;100534.14;1747169;79;21077;-63
2021/08/08 07:33:57;;;;;;;5.17;2.50;;;;;;;22.55;50.96;100541.99;1749704;79;21050;-63
2021/08/08 07:36:24;;;;;;;4.85;2.17;;;;;;;22.56;51.02;100546.31;1750292;79;21176;-63
2021/08/08 07:38:51;;;;;;;6.03;2.10;;;;;;;22.59;50.47;100552.13;1748016;79;21069;-64
2021/08/08 07:41:18;;;;;;;4.65;2.33;;;;;;;22.61;50.58;100549.22;1747366;79;21108;-64
2021/08/08 07:43:45;;;;;;;4.50;2.30;;;;;;;22.69;51.07;100555.77;1747406;79;21101;-64
2021/08/08 07:46:12;;;;;;;4.35;2.17;;;;;;;22.74;50.60;100557.86;1747252;79;21093;-65
2021/08/08 07:48:40;;;;;;;5.33;2.02;;;;;;;22.77;51.06;100558.30;1744432;79;21112;-63
2021/08/08 07:51:08;;;;;;;7.22;2.35;;;;;;;22.83;50.93;100556.69;1750849;79;21400;-64
2021/08/08 07:53:35;;;;;;;5.30;2.22;;;;;;;22.88;51.14;100555.58;1744238;79;22709;-62
2021/08/08 07:56:02;;;;;;;4.20;1.98;;;;;;;22.92;50.83;100550.11;1751099;79;21547;-63
2021/08/08 07:58:30;;;;;;;5.65;1.90;;;;;;;22.96;50.35;100552.72;1728488;80;21081;-63
2021/08/08 08:00:57;;;;;;;4.90;2.50;;;;;;;23.03;50.51;100559.42;1777373;78;21551;-63
2021/08/08 08:03:24;;;;;;;7.70;2.83;;;;;;;23.10;50.44;100555.45;1779413;78;21515;-62
2021/08/08 08:05:52;;;;;;;7.42;2.65;;;;;;;23.13;50.05;100558.59;1777355;78;21072;-64
2021/08/08 08:08:21;;;;;;;4.70;2.37;;;;;;;23.16;49.74;100557.34;1781932;78;21132;-64
2021/08/08 08:10:48;;;;;;;5.40;2.30;;;;;;;23.21;49.79;100556.75;1776290;78;21547;-62
2021/08/08 08:13:14;;;;;;;6.45;2.42;;;;;;;23.25;50.13;100545.41;1749299;80;21784;-64
2021/08/08 08:15:41;;;;;;;4.83;2.33;;;;;;;23.32;49.41;100552.14;1773665;78;21678;-64
2021/08/08 08:18:08;;;;;;;6.33;2.65;;;;;;;23.37;49.78;100549.67;1736674;80;21141;-63
2021/08/08 08:20:37;;;;;;;6.70;2.17;;;;;;;23.41;49.54;100539.35;1744891;79;21117;-64
2021/08/08 08:23:04;;;;;;;7.72;2.40;;;;;;;23.47;49.04;100543.39;1748266;79;21062;-63
2021/08/08 08:25:31;;;;;;;5.67;2.65;;;;;;;23.52;49.38;100536.89;1746201;79;21066;-63
2021/08/08 08:27:58;;;;;;;6.17;3.00;;;;;;;23.56;48.58;100531.41;1748965;79;21621;-64
2021/08/08 08:30:24;;;;;;;7.25;2.92;;;;;;;23.60;48.79;100539.06;1744632;79;22830;-64
2021/08/08 08:32:51;;;;;;;6.37;2.52;;;;;;;23.62;48.82;100532.47;1744329;79;21125;-66
2021/08/08 08:35:20;;;;;;;7.40;2.90;;;;;;;23.69;48.51;100535.98;1750696;79;21112;-63
2021/08/08 08:37:46;;;;;;;5.55;2.83;;;;;;;23.74;47.97;100533.50;1748560;79;21445;-62
2021/08/08 08:40:13;;;;;;;5.55;2.55;;;;;;;23.78;48.70;100529.88;1747415;79;21612;-63
2021/08/08 08:42:50;;;;;;;6.12;2.62;;;;;;;23.83;48.23;100527.95;1748711;79;21112;-62
2021/08/08 08:45:18;;;;;;;5.90;2.77;;;;;;;23.86;47.61;100527.02;1751641;79;21101;-63
2021/08/08 08:47:46;;;;;;;5.72;2.62;;;;;;;23.88;47.26;100519.58;1759422;79;21053;-63
2021/08/08 08:50:15;;;;;;;4.00;2.17;;;;;;;23.90;46.87;100519.37;1757200;79;21579;-65
2021/08/08 08:52:45;;;;;;;4.83;2.20;;;;;;;23.95;47.01;100518.75;1760553;79;21088;-62
2021/08/08 08:55:12;;;;;;;6.62;2.75;;;;;;;24.00;46.26;100514.92;1756787;79;21144;-63
2021/08/08 08:57:39;;;;;;;6.87;1.82;;;;;;;24.00;46.28;100518.95;1761557;79;21065;-66
2021/08/08 09:00:11;;;;;;;5.45;2.37;;;;;;;23.99;47.09;100514.60;1741771;80;21567;-64
2021/08/08 09:02:40;;;;;;;6.95;2.58;;;;;;;24.03;45.99;100509.14;1761852;79;21105;-64
2021/08/08 09:05:08;;;;;;;5.45;2.10;;;;;;;24.06;45.72;100506.03;1743716;79;21049;-64
2021/08/08 09:07:35;;;;;;;5.22;2.15;;;;;;;24.10;46.66;100502.70;1762130;79;21136;-64
2021/08/08 09:10:11;;;;;;;6.70;2.58;;;;;;;24.17;45.37;100507.25;1767033;79;21058;-64
2021/08/08 09:12:38;;;;;;;5.33;2.25;;;;;;;24.23;45.44;100498.36;1760155;79;21128;-65
2021/08/08 09:15:06;;;;;;;4.40;2.00;;;;;;;24.28;45.49;100499.89;1756851;79;21085;-63
2021/08/08 09:17:37;;;;;;;5.72;2.35;;;;;;;24.30;45.82;100501.31;1756411;79;21026;-64
2021/08/08 09:20:08;;;;;;;5.30;2.40;;;;;;;24.35;45.26;100502.03;1747497;79;21100;-62
2021/08/08 09:22:38;;;;;;;5.22;2.00;;;;;;;24.40;45.29;100497.38;1756892;79;21043;-64
2021/08/08 09:25:11;;;;;;;5.75;2.45;;;;;;;24.45;42.51;100490.31;1757231;79;21048;-67
2021/08/08 09:27:39;;;;;;;5.42;2.10;;;;;;;24.50;42.48;100497.76;1751014;79;21040;-62
2021/08/08 09:30:19;;;;;;;6.78;2.62;;;;;;;24.55;42.57;100494.47;1756674;79;21116;-65
2021/08/08 09:32:46;;;;;;;6.20;2.45;;;;;;;24.60;42.54;100490.09;1759473;79;21125;-64
2021/08/08 09:35:19;;;;;;;5.72;2.87;;;;;;;24.67;43.31;100490.06;1752466;79;21332;-63
2021/08/08 09:37:41;;;;;;;7.05;2.50;;;;;;;24.72;43.11;100488.09;1760433;79;21069;-66
2021/08/08 09:40:14;;;;;;;6.40;2.37;;;;;;;24.78;43.11;100490.75;1766932;79;21120;-64
2021/08/08 09:42:45;;;;;;;6.37;1.92;;;;;;;24.85;42.66;100494.23;1761968;79;22260;-64
2021/08/08 09:45:14;;;;;;;5.58;2.45;;;;;;;24.87;42.74;100491.86;1744048;80;21062;-64
2021/08/08 09:47:49;;;;;;;5.97;2.85;;;;;;;24.86;42.07;100488.31;1753113;79;21674;-64
2021/08/08 09:50:23;;;;;;;6.17;2.42;;;;;;;24.86;42.54;100485.63;1757142;79;21326;-63
2021/08/08 09:53:00;;;;;;;5.37;2.70;;;;;;;24.84;43.33;100485.02;1769009;78;21088;-65
2021/08/08 09:55:37;;;;;;;5.15;2.58;;;;;;;24.88;43.42;100489.45;1775068;78;21076;-62
2021/08/08 09:58:23;;;;;;;5.55;2.40;;;;;;;24.96;44.21;100485.98;1732953;80;21101;-65
2021/08/08 10:00:50;;;;;;;5.80;1.90;;;;;;;25.05;42.40;100481.20;1739082;80;21738;-64
2021/08/08 10:03:18;;;;;;;4.75;2.27;;;;;;;25.14;42.46;100481.77;1739621;80;21113;-63
2021/08/08 10:05:46;;;;;;;4.95;2.22;;;;;;;25.23;41.58;100477.75;1753748;80;21098;-63
2021/08/08 10:08:21;;;;;;;5.10;1.90;;;;;;;25.31;40.81;100487.48;1745951;80;21077;-64
2021/08/08 10:10:52;;;;;;;7.08;2.00;;;;;;;25.31;40.20;100481.56;1746216;79;21556;-63
2021/08/08 10:13:48;;;;;;;5.33;2.20;;;;;;;25.33;40.18;100489.42;1751500;79;21104;-60
2021/08/08 10:16:16;;;;;;;4.60;1.70;;;;;;;25.35;40.89;100491.37;1750099;79;21121;-65
2021/08/08 10:18:54;;;;;;;3.33;1.60;;;;;;;25.37;39.12;100491.47;1748711;79;21643;-63
2021/08/08 10:21:21;;;;;;;2.98;1.15;;;;;;;25.39;37.79;100494.77;1755385;79;21069;-64
2021/08/08 10:23:49;;;;;;;3.45;1.20;;;;;;;25.44;37.28;100494.13;1753324;79;21125;-64
2021/08/08 10:26:18;;;;;;;2.98;1.10;;;;;;;25.53;36.03;100496.02;1759199;79;21058;-64
2021/08/08 10:28:44;;;;;;;3.42;1.40;;;;;;;25.59;36.13;100489.23;1754235;79;21674;-65
2021/08/08 10:31:17;;;;;;;3.17;1.40;;;;;;;25.65;35.76;100488.05;1752382;79;21087;-64
2021/08/08 10:33:48;;;;;;;3.40;1.22;;;;;;;25.70;34.39;100489.56;1757262;79;21061;-64
2021/08/08 10:36:19;;;;;;;;;;;;;;;25.74;34.66;100492.95;1751157;79;21738;-64
2021/08/08 10:38:46;;;;;;;5.03;1.67;;;;;;;25.80;34.46;100490.41;1743203;79;21328;-68
2021/08/08 10:41:13;;;;;;;3.80;1.42;;;;;;;25.81;34.10;100489.38;1747856;79;21053;-66
2021/08/08 10:43:44;;;;;;;2.58;1.02;;;;;;;25.88;33.13;100480.70;1752083;79;21516;-64
2021/08/08 10:46:10;;;;;;;3.60;1.27;;;;;;;25.97;32.07;100482.62;1746527;79;21041;-66
2021/08/08 10:48:41;;;;;;;4.62;1.85;;;;;;;26.02;31.15;100480.08;1756964;79;21606;-66
2021/08/08 10:51:28;;;;;;;3.33;1.32;;;;;;;26.09;31.92;100484.87;1751253;79;21089;-65
2021/08/08 10:54:06;;;;;;;3.35;1.35;;;;;;;26.12;31.36;100485.78;1746492;79;21198;-72
2021/08/08 10:56:48;;;;;;;3.58;1.05;;;;;;;26.21;31.23;100481.75;1740298;79;21468;-64
2021/08/08 10:59:16;;;;;;;3.55;1.60;;;;;;;26.28;32.48;100481.69;1751167;79;21093;-62
2021/08/08 11:01:45;;;;;;;5.58;1.57;;;;;;;26.34;33.69;100487.51;1751781;79;21017;-63
2021/08/08 11:04:11;;;;;;;3.25;1.32;;;;;;;26.40;31.39;100481.22;1758952;79;21129;-64
2021/08/08 11:06:41;;;;;;;7.53;1.60;;;;;;;26.45;31.39;100480.02;1759769;79;21052;-64
2021/08/08 11:09:07;;;;;;;5.20;1.50;;;;;;;26.49;31.63;100478.53;1751978;80;21066;-65
2021/08/08 11:11:38;;;;;;;3.02;1.12;;;;;;;26.49;31.33;100477.19;1769455;79;21061;-64
2021/08/08 11:14:16;;;;;;;3.60;1.67;;;;;;;26.50;30.13;100480.70;1765121;79;21184;-64
2021/08/08 11:16:47;;;;;;;3.15;1.50;;;;;;;26.50;31.28;100478.81;1760701;79;21065;-65
2021/08/08 11:19:14;;;;;;;3.87;1.32;;;;;;;26.59;30.81;100480.67;1760693;79;21634;-64
2021/08/08 11:21:42;;;;;;;4.00;1.52;;;;;;;26.70;29.29;100483.19;1755753;79;21069;-64
2021/08/08 11:24:10;;;;;;;4.20;1.70;;;;;;;26.75;29.90;100476.58;1780943;78;21335;-64
2021/08/08 11:26:37;;;;;;;5.28;1.80;;;;;;;26.78;30.79;100477.98;1762412;79;21128;-62
2021/08/08 11:29:06;;;;;;;3.77;1.30;;;;;;;26.80;30.45;100479.42;1779995;78;21061;-64